Share

Appalachia, VA

Lonesome Pine (KLNP) Elev 2684 ft | 36.99 °N, 82.53 °W | Change Station
Active Advisory: Freeze Warning Active Notice: Record Report

Current weather conditions updated 17 minutes ago

Clear
Clear
45 °F
Feels Like 40 °F
N
9
Wind Variable Wind from SSE
Gusts 18 mph
Sunrise 6:54 AM
Sunset 8:07 PM
Moon Waning Gibbous

Today is forecast to be Much Warmer than yesterday.

Pressure 30.28 in
Visibility 10.0 miles
Clouds Clear
Windchill 40 °F
Dew Point 14 °F
Humidity 29%
Rainfall 0.00 in
Snow Depth Not available.
UV 0 out of 16
Pollen 8.50 out of 12
Air Quality Not available.
Flu Activity Local Activity
METAR KLNP 170355Z AUTO 16008G16KT 10SM CLR 07/M10 A3028 RMK AO2

More Conditions Fewer Conditions

Pressure 30.28 in
Visibility 10.0 miles
Clouds Clear
Windchill 40 °F
Dew Point 14 °F
Humidity 29%
Rainfall 0.00 in
Snow Depth Not available.
UV 0 out of 16
Pollen 8.50 out of 12
Air Quality Not available.
Flu Activity Local Activity
METAR KLNP 170355Z AUTO 16008G16KT 10SM CLR 07/M10 A3028 RMK AO2

More Conditions Fewer Conditions

10-Day Forecast

Almanac

Astronomy

Apr. 17, 2014 Rise Set
Actual Time 6:54 AM EDT 8:07 PM EDT
Civil Twilight 6:27 AM EDT 8:34 PM EDT
Nautical Twilight 5:55 AM EDT 9:06 PM EDT
Astronomical Twilight 5:22 AM EDT 9:40 PM EDT
Moon 10:49 PM EDT 8:27 AM EDT
Length of Visible Light 14h 07m
Length of Day
13h 13m
Tomorrow will be 2m 13s longer.
Waning Gibbous, 96% of the Moon is Illuminated
Today
Waning Gibbous
Apr 22
Last Quarter
Apr 29
New
May 6
First Quarter
May 14
Full

Yesterday's Extremes

State Highs State Lows

Community

  • symphony in blue....
    symphony in blue....
  • Dawn Surprise
    Dawn Surprise
  • Yucca delight
    Yucca delight
  • Sunset inside of the Ocean
    Sunset inside of the Ocean
  • Lunar eclipse 15 April 2014
    Lunar eclipse 15 April 2014

WunderPhotos

Upload Photos

1,701,847 photos uploaded!

WunderBlogs® & News

Nearby

Snow Depth

Station Depth Elevation
No new snow has been reported.

Coastal Water Temperatures

Place Temperature
No Stations Reporting

Earthquake Activity

City Distance Mag. Time & Date
Englewood, Tennessee 137 miles 2.8 10:34 PM EDT
2014-04-12
Minimum magnitude displayed is 2.5.

Nearby Weather Stations

Station Location Temp. Windchill Dew Point Humidity Wind Precip. Elev Updated Type
RAWS WISE VA, Wise, VA 44 °F 41 °F 18 °F 35% WNW  at  6 mph 0.00 in / hr 2529 ft 11:11 PM EDT MADIS
Kona/PayneGap, Jenkins, KY 42.6 °F 41 °F 31 °F 64% SSW  at  3.8 mph - / hr 1719 ft 11:59 PM EDT Normal
RAWS PRAWS 7 KY, Jenkins, KY 43 °F 43 °F 16 °F 33% NNW  at  2 mph 0.00 in / hr 3018 ft 11:24 PM EDT MADIS

Show More Stations Show Fewer Stations

What do you think?

We're not finished. Please let us know what you like, what you don't like, and what you are still missing.